Online Now
Guests 3
Members   0

24/7 FSX Server
IP: 75.131.218.248
@ KJFK until 4/19/19



Information and tools for flight simulation use only - NOT for real avaition

File Flight Plans Here

KJFK 192051Z 18023G31KT 10SM FEW035 SCT095 SCT140 BKN250 17/14 A2977 RMK AO2 PK WND 18033/2013 SLP082 T01720144 56012KJFK 191918Z 1919/2024 18025G33KT P6SM SCT020 OVC035 WS020/20050KT TEMPO 1919/1923 6SM -SHRA BR BKN020 FM192300 18022KT 3SM -SHRA BR OVC010 WS020/19055KT FM200600 18020KT 2SM +SHRA BR OVC008 WS020/19055KT PROB30 2010/2014 1SM +TSRA BKN008 OVC080CB FM201400 17016G23KT 4SM SHRA BR OVC012 WS020/19050KT FM201600 17015G22KT 6SM -SHRA BR BKN015 OVC025 WS020/19050KT FM202000 15018G27KT 6SM -DZ BR BKN030 OVC150
Aviation Digital Data Service (ADDS)



Other FSX servers